sensor_id;sensor_type;location;lat;lon;timestamp;pressure;altitude;pressure_sealevel;temperature;humidity
22753;BME280;11543;43.144;24.684;2022-08-21T00:02:13;98114.22;;;23.70;78.20
22753;BME280;11543;43.144;24.684;2022-08-21T00:04:39;98110.88;;;23.63;78.28
22753;BME280;11543;43.144;24.684;2022-08-21T00:07:05;98115.38;;;23.74;77.19
22753;BME280;11543;43.144;24.684;2022-08-21T00:09:30;98103.78;;;23.67;76.96
22753;BME280;11543;43.144;24.684;2022-08-21T00:11:56;98106.69;;;23.55;77.38
22753;BME280;11543;43.144;24.684;2022-08-21T00:14:21;98126.72;;;23.61;77.58
22753;BME280;11543;43.144;24.684;2022-08-21T00:16:46;98111.13;;;23.61;77.31
22753;BME280;11543;43.144;24.684;2022-08-21T00:19:14;98103.69;;;23.57;77.41
22753;BME280;11543;43.144;24.684;2022-08-21T00:21:40;98093.81;;;23.56;77.44
22753;BME280;11543;43.144;24.684;2022-08-21T00:24:06;98088.25;;;23.50;77.36
22753;BME280;11543;43.144;24.684;2022-08-21T00:26:32;98096.03;;;23.59;77.33
22753;BME280;11543;43.144;24.684;2022-08-21T00:28:57;98078.47;;;23.55;77.18
22753;BME280;11543;43.144;24.684;2022-08-21T00:31:23;98077.38;;;23.56;76.85
22753;BME280;11543;43.144;24.684;2022-08-21T00:33:48;98075.13;;;23.52;77.24
22753;BME280;11543;43.144;24.684;2022-08-21T00:36:14;98073.31;;;23.58;76.96
22753;BME280;11543;43.144;24.684;2022-08-21T00:38:40;98044.13;;;23.47;76.88
22753;BME280;11543;43.144;24.684;2022-08-21T00:41:08;98056.03;;;23.58;77.02
22753;BME280;11543;43.144;24.684;2022-08-21T00:43:36;98067.94;;;23.68;76.65
22753;BME280;11543;43.144;24.684;2022-08-21T00:46:03;98073.63;;;23.62;76.98
22753;BME280;11543;43.144;24.684;2022-08-21T00:48:30;98064.84;;;23.60;76.87
22753;BME280;11543;43.144;24.684;2022-08-21T00:51:09;98066.09;;;23.52;77.15
22753;BME280;11543;43.144;24.684;2022-08-21T00:53:40;98062.41;;;23.41;77.46
22753;BME280;11543;43.144;24.684;2022-08-21T00:56:09;98066.16;;;23.35;77.74
22753;BME280;11543;43.144;24.684;2022-08-21T00:58:41;98080.28;;;23.27;78.30
22753;BME280;11543;43.144;24.684;2022-08-21T01:01:08;98067.00;;;23.14;78.70
22753;BME280;11543;43.144;24.684;2022-08-21T01:03:35;98074.25;;;23.25;78.57
22753;BME280;11543;43.144;24.684;2022-08-21T01:06:01;98089.13;;;23.34;78.42
22753;BME280;11543;43.144;24.684;2022-08-21T01:08:28;98086.59;;;23.28;78.55
22753;BME280;11543;43.144;24.684;2022-08-21T01:10:54;98096.31;;;23.40;78.21
22753;BME280;11543;43.144;24.684;2022-08-21T01:13:21;98102.13;;;23.44;77.81
22753;BME280;11543;43.144;24.684;2022-08-21T01:15:50;98100.22;;;23.44;77.87
22753;BME280;11543;43.144;24.684;2022-08-21T01:18:19;98104.16;;;23.54;77.47
22753;BME280;11543;43.144;24.684;2022-08-21T01:21:04;98114.63;;;23.57;77.02
22753;BME280;11543;43.144;24.684;2022-08-21T01:23:31;98115.63;;;23.50;77.20
22753;BME280;11543;43.144;24.684;2022-08-21T01:25:57;98099.72;;;23.47;77.03
22753;BME280;11543;43.144;24.684;2022-08-21T01:28:24;98116.66;;;23.44;77.40
22753;BME280;11543;43.144;24.684;2022-08-21T01:30:51;98111.44;;;23.43;77.49
22753;BME280;11543;43.144;24.684;2022-08-21T01:33:22;98103.03;;;23.49;77.12
22753;BME280;11543;43.144;24.684;2022-08-21T01:35:49;98097.47;;;23.44;77.52
22753;BME280;11543;43.144;24.684;2022-08-21T01:38:15;98099.91;;;23.41;77.68
22753;BME280;11543;43.144;24.684;2022-08-21T01:40:40;98101.72;;;23.35;77.81
22753;BME280;11543;43.144;24.684;2022-08-21T01:43:06;98105.03;;;23.37;77.83
22753;BME280;11543;43.144;24.684;2022-08-21T01:45:31;98085.88;;;23.37;77.21
22753;BME280;11543;43.144;24.684;2022-08-21T01:47:57;98103.59;;;23.51;76.64
22753;BME280;11543;43.144;24.684;2022-08-21T01:50:23;98082.63;;;23.40;76.45
22753;BME280;11543;43.144;24.684;2022-08-21T01:52:49;98099.84;;;23.58;76.01
22753;BME280;11543;43.144;24.684;2022-08-21T01:55:16;98095.78;;;23.60;76.04
22753;BME280;11543;43.144;24.684;2022-08-21T01:57:43;98093.66;;;23.67;75.94
22753;BME280;11543;43.144;24.684;2022-08-21T02:00:11;98087.66;;;23.70;75.73
22753;BME280;11543;43.144;24.684;2022-08-21T02:02:38;98090.66;;;23.69;75.57
22753;BME280;11543;43.144;24.684;2022-08-21T02:05:04;98076.03;;;23.58;75.87
22753;BME280;11543;43.144;24.684;2022-08-21T02:07:38;98076.09;;;23.41;76.78
22753;BME280;11543;43.144;24.684;2022-08-21T02:10:05;98086.28;;;23.46;76.93
22753;BME280;11543;43.144;24.684;2022-08-21T02:12:31;98080.16;;;23.39;76.86
22753;BME280;11543;43.144;24.684;2022-08-21T02:14:57;98080.41;;;23.37;76.96
22753;BME280;11543;43.144;24.684;2022-08-21T02:17:23;98083.84;;;23.28;77.29
22753;BME280;11543;43.144;24.684;2022-08-21T02:19:49;98069.72;;;23.14;77.83
22753;BME280;11543;43.144;24.684;2022-08-21T02:22:15;98076.47;;;23.06;78.51
22753;BME280;11543;43.144;24.684;2022-08-21T02:24:40;98075.63;;;23.06;78.72
22753;BME280;11543;43.144;24.684;2022-08-21T02:27:06;98080.72;;;22.97;79.29
22753;BME280;11543;43.144;24.684;2022-08-21T02:29:31;98082.06;;;22.95;79.67
22753;BME280;11543;43.144;24.684;2022-08-21T02:31:57;98068.19;;;23.01;79.28
22753;BME280;11543;43.144;24.684;2022-08-21T02:34:22;98071.94;;;23.17;78.73
22753;BME280;11543;43.144;24.684;2022-08-21T02:36:48;98069.22;;;23.17;78.73
22753;BME280;11543;43.144;24.684;2022-08-21T02:39:13;98065.72;;;23.22;78.34
22753;BME280;11543;43.144;24.684;2022-08-21T02:41:39;98050.44;;;23.26;78.05
22753;BME280;11543;43.144;24.684;2022-08-21T02:44:04;98049.03;;;23.23;77.58
22753;BME280;11543;43.144;24.684;2022-08-21T02:46:30;98060.16;;;23.38;77.49
22753;BME280;11543;43.144;24.684;2022-08-21T02:48:55;98024.66;;;23.22;77.24
22753;BME280;11543;43.144;24.684;2022-08-21T02:51:21;98048.06;;;23.34;76.99
22753;BME280;11543;43.144;24.684;2022-08-21T02:53:48;98052.19;;;23.37;76.90
22753;BME280;11543;43.144;24.684;2022-08-21T02:56:16;98053.03;;;23.37;76.79
22753;BME280;11543;43.144;24.684;2022-08-21T02:58:48;98069.84;;;23.46;76.33
22753;BME280;11543;43.144;24.684;2022-08-21T03:01:15;98076.66;;;23.43;76.16
22753;BME280;11543;43.144;24.684;2022-08-21T03:03:42;98079.47;;;23.48;76.26
22753;BME280;11543;43.144;24.684;2022-08-21T03:06:10;98076.66;;;23.43;76.07
22753;BME280;11543;43.144;24.684;2022-08-21T03:08:36;98061.25;;;23.37;76.01
22753;BME280;11543;43.144;24.684;2022-08-21T03:11:03;98072.75;;;23.39;76.36
22753;BME280;11543;43.144;24.684;2022-08-21T03:13:28;98065.47;;;23.23;77.13
22753;BME280;11543;43.144;24.684;2022-08-21T03:15:54;98065.84;;;23.10;77.58
22753;BME280;11543;43.144;24.684;2022-08-21T03:18:20;98089.38;;;23.11;77.88
22753;BME280;11543;43.144;24.684;2022-08-21T03:20:46;98099.94;;;23.02;78.61
22753;BME280;11543;43.144;24.684;2022-08-21T03:23:13;98100.19;;;23.01;78.46
22753;BME280;11543;43.144;24.684;2022-08-21T03:25:39;98099.13;;;23.02;78.72
22753;BME280;11543;43.144;24.684;2022-08-21T03:28:07;98105.03;;;22.94;79.26
22753;BME280;11543;43.144;24.684;2022-08-21T03:30:32;98099.41;;;22.83;79.68
22753;BME280;11543;43.144;24.684;2022-08-21T03:32:58;98093.44;;;22.86;79.22
22753;BME280;11543;43.144;24.684;2022-08-21T03:35:25;98082.06;;;22.78;79.15
22753;BME280;11543;43.144;24.684;2022-08-21T03:37:50;98106.69;;;22.95;78.66
22753;BME280;11543;43.144;24.684;2022-08-21T03:40:18;98117.25;;;23.08;77.88
22753;BME280;11543;43.144;24.684;2022-08-21T03:42:44;98109.63;;;23.10;77.83
22753;BME280;11543;43.144;24.684;2022-08-21T03:45:13;98092.56;;;23.03;77.76
22753;BME280;11543;43.144;24.684;2022-08-21T03:47:39;98115.22;;;23.20;77.21
22753;BME280;11543;43.144;24.684;2022-08-21T03:50:04;98116.38;;;23.24;77.17
22753;BME280;11543;43.144;24.684;2022-08-21T03:52:30;98102.44;;;23.26;76.80
22753;BME280;11543;43.144;24.684;2022-08-21T03:54:56;98091.34;;;23.15;76.49
22753;BME280;11543;43.144;24.684;2022-08-21T03:57:21;98100.31;;;23.11;76.87
22753;BME280;11543;43.144;24.684;2022-08-21T03:59:47;98097.09;;;23.14;77.02
22753;BME280;11543;43.144;24.684;2022-08-21T04:02:16;98085.56;;;23.12;76.73
22753;BME280;11543;43.144;24.684;2022-08-21T04:04:44;98084.22;;;23.14;76.22
22753;BME280;11543;43.144;24.684;2022-08-21T04:07:10;98099.75;;;23.31;76.13
22753;BME280;11543;43.144;24.684;2022-08-21T04:09:35;98088.44;;;23.22;76.11
22753;BME280;11543;43.144;24.684;2022-08-21T04:12:01;98106.13;;;23.36;76.38
22753;BME280;11543;43.144;24.684;2022-08-21T04:14:27;98080.03;;;23.29;76.67
22753;BME280;11543;43.144;24.684;2022-08-21T04:16:52;98093.97;;;23.27;76.95
22753;BME280;11543;43.144;24.684;2022-08-21T04:19:18;98089.84;;;23.25;77.12
22753;BME280;11543;43.144;24.684;2022-08-21T04:21:43;98083.53;;;23.24;77.15
22753;BME280;11543;43.144;24.684;2022-08-21T04:24:09;98084.69;;;23.28;77.52
22753;BME280;11543;43.144;24.684;2022-08-21T04:26:35;98099.44;;;23.27;77.77
22753;BME280;11543;43.144;24.684;2022-08-21T04:29:02;98097.28;;;23.29;77.87
22753;BME280;11543;43.144;24.684;2022-08-21T04:31:27;98097.34;;;23.34;77.91
22753;BME280;11543;43.144;24.684;2022-08-21T04:33:54;98096.75;;;23.32;77.92
22753;BME280;11543;43.144;24.684;2022-08-21T04:36:21;98090.97;;;23.29;78.12
22753;BME280;11543;43.144;24.684;2022-08-21T04:38:46;98083.97;;;23.16;78.70
22753;BME280;11543;43.144;24.684;2022-08-21T04:41:12;98082.25;;;23.10;79.38
22753;BME280;11543;43.144;24.684;2022-08-21T04:43:38;98098.59;;;23.27;78.80
22753;BME280;11543;43.144;24.684;2022-08-21T04:46:04;98107.19;;;23.35;78.31
22753;BME280;11543;43.144;24.684;2022-08-21T04:48:31;98111.16;;;23.44;77.84
22753;BME280;11543;43.144;24.684;2022-08-21T04:51:39;98114.78;;;23.50;77.61
22753;BME280;11543;43.144;24.684;2022-08-21T04:56:30;98108.63;;;23.60;77.01
22753;BME280;11543;43.144;24.684;2022-08-21T04:58:58;98087.72;;;23.54;76.88
22753;BME280;11543;43.144;24.684;2022-08-21T05:01:27;98102.97;;;23.66;76.35
22753;BME280;11543;43.144;24.684;2022-08-21T05:03:56;98098.63;;;23.70;76.51
22753;BME280;11543;43.144;24.684;2022-08-21T05:06:24;98101.56;;;23.64;76.89
22753;BME280;11543;43.144;24.684;2022-08-21T05:08:51;98107.09;;;23.69;77.22
22753;BME280;11543;43.144;24.684;2022-08-21T05:11:18;98109.00;;;23.68;76.66
22753;BME280;11543;43.144;24.684;2022-08-21T05:13:44;98119.31;;;23.83;76.66
22753;BME280;11543;43.144;24.684;2022-08-21T05:16:10;98122.09;;;23.88;76.24
22753;BME280;11543;43.144;24.684;2022-08-21T05:18:36;98116.41;;;23.95;76.17
22753;BME280;11543;43.144;24.684;2022-08-21T05:21:02;98108.97;;;23.90;76.21
22753;BME280;11543;43.144;24.684;2022-08-21T05:23:27;98112.88;;;23.99;76.00
22753;BME280;11543;43.144;24.684;2022-08-21T05:25:53;98121.25;;;24.14;76.25
22753;BME280;11543;43.144;24.684;2022-08-21T05:28:19;98126.22;;;24.18;75.82
22753;BME280;11543;43.144;24.684;2022-08-21T05:30:45;98133.50;;;24.29;75.70
22753;BME280;11543;43.144;24.684;2022-08-21T05:33:10;98124.19;;;24.30;75.28
22753;BME280;11543;43.144;24.684;2022-08-21T05:35:37;98112.41;;;24.29;75.39
22753;BME280;11543;43.144;24.684;2022-08-21T05:38:04;98124.28;;;24.40;75.17
22753;BME280;11543;43.144;24.684;2022-08-21T05:40:30;98119.38;;;24.47;74.94
22753;BME280;11543;43.144;24.684;2022-08-21T05:42:56;98128.75;;;24.51;74.63
22753;BME280;11543;43.144;24.684;2022-08-21T05:45:31;98125.47;;;24.54;74.44
22753;BME280;11543;43.144;24.684;2022-08-21T05:47:57;98124.91;;;24.52;74.28
22753;BME280;11543;43.144;24.684;2022-08-21T05:50:25;98127.66;;;24.52;74.17
22753;BME280;11543;43.144;24.684;2022-08-21T05:52:50;98118.34;;;24.53;74.00
22753;BME280;11543;43.144;24.684;2022-08-21T05:55:16;98118.34;;;24.53;73.77
22753;BME280;11543;43.144;24.684;2022-08-21T05:57:41;98126.94;;;24.67;73.99
22753;BME280;11543;43.144;24.684;2022-08-21T06:00:08;98134.34;;;24.66;73.72
22753;BME280;11543;43.144;24.684;2022-08-21T06:02:35;98149.75;;;24.72;73.81
22753;BME280;11543;43.144;24.684;2022-08-21T06:05:01;98149.19;;;24.70;73.87
22753;BME280;11543;43.144;24.684;2022-08-21T06:07:28;98144.25;;;24.72;73.73
22753;BME280;11543;43.144;24.684;2022-08-21T06:09:54;98140.41;;;24.68;73.77
22753;BME280;11543;43.144;24.684;2022-08-21T06:12:19;98147.56;;;24.74;73.13
22753;BME280;11543;43.144;24.684;2022-08-21T06:14:45;98170.19;;;24.92;73.17
22753;BME280;11543;43.144;24.684;2022-08-21T06:17:11;98170.47;;;24.95;73.00
22753;BME280;11543;43.144;24.684;2022-08-21T06:19:38;98139.97;;;24.87;72.88
22753;BME280;11543;43.144;24.684;2022-08-21T06:22:04;98147.41;;;24.91;72.80
22753;BME280;11543;43.144;24.684;2022-08-21T06:24:32;98153.81;;;25.02;72.76
22753;BME280;11543;43.144;24.684;2022-08-21T06:27:04;98169.03;;;25.15;72.66
22753;BME280;11543;43.144;24.684;2022-08-21T06:29:29;98164.84;;;25.12;72.75
22753;BME280;11543;43.144;24.684;2022-08-21T06:31:55;98161.63;;;25.15;72.69
22753;BME280;11543;43.144;24.684;2022-08-21T06:34:22;98155.84;;;25.17;72.11
22753;BME280;11543;43.144;24.684;2022-08-21T06:36:48;98178.16;;;25.30;72.02
22753;BME280;11543;43.144;24.684;2022-08-21T06:39:13;98177.63;;;25.33;71.78
22753;BME280;11543;43.144;24.684;2022-08-21T06:41:39;98178.22;;;25.40;71.84
22753;BME280;11543;43.144;24.684;2022-08-21T06:44:05;98181.53;;;25.48;71.06
22753;BME280;11543;43.144;24.684;2022-08-21T06:46:31;98165.03;;;25.43;71.09
22753;BME280;11543;43.144;24.684;2022-08-21T06:48:57;98187.94;;;25.63;70.65
22753;BME280;11543;43.144;24.684;2022-08-21T06:51:23;98184.41;;;25.68;70.54
22753;BME280;11543;43.144;24.684;2022-08-21T06:53:50;98181.16;;;25.76;70.97
22753;BME280;11543;43.144;24.684;2022-08-21T06:56:16;98167.38;;;25.71;70.62
22753;BME280;11543;43.144;24.684;2022-08-21T06:58:41;98180.63;;;25.84;70.13
22753;BME280;11543;43.144;24.684;2022-08-21T07:01:07;98182.53;;;25.84;68.83
22753;BME280;11543;43.144;24.684;2022-08-21T07:03:36;98168.53;;;25.85;68.81
22753;BME280;11543;43.144;24.684;2022-08-21T07:06:04;98177.38;;;25.97;68.54
22753;BME280;11543;43.144;24.684;2022-08-21T07:08:30;98175.22;;;26.05;68.75
22753;BME280;11543;43.144;24.684;2022-08-21T07:10:58;98163.38;;;26.04;68.95
22753;BME280;11543;43.144;24.684;2022-08-21T07:13:24;98174.69;;;26.13;68.81
22753;BME280;11543;43.144;24.684;2022-08-21T07:15:50;98153.22;;;26.10;68.45
22753;BME280;11543;43.144;24.684;2022-08-21T07:18:15;98169.19;;;26.23;68.14
22753;BME280;11543;43.144;24.684;2022-08-21T07:20:42;98132.91;;;26.21;68.36
22753;BME280;11543;43.144;24.684;2022-08-21T07:23:22;98148.88;;;26.34;68.77
22753;BME280;11543;43.144;24.684;2022-08-21T07:25:48;98137.56;;;26.25;68.43
22753;BME280;11543;43.144;24.684;2022-08-21T07:28:13;98147.25;;;26.38;68.67
22753;BME280;11543;43.144;24.684;2022-08-21T07:30:39;98156.88;;;26.41;67.75
22753;BME280;11543;43.144;24.684;2022-08-21T07:33:04;98149.16;;;26.48;67.66
22753;BME280;11543;43.144;24.684;2022-08-21T07:35:30;98129.09;;;26.42;67.65
22753;BME280;11543;43.144;24.684;2022-08-21T07:37:56;98141.19;;;26.56;67.14
22753;BME280;11543;43.144;24.684;2022-08-21T07:40:22;98129.63;;;26.49;66.12
22753;BME280;11543;43.144;24.684;2022-08-21T07:42:48;98139.00;;;26.58;66.40
22753;BME280;11543;43.144;24.684;2022-08-21T07:45:18;98132.94;;;26.61;66.68
22753;BME280;11543;43.144;24.684;2022-08-21T07:47:44;98142.56;;;26.64;65.73
22753;BME280;11543;43.144;24.684;2022-08-21T07:50:12;98146.13;;;26.70;65.46
22753;BME280;11543;43.144;24.684;2022-08-21T07:52:38;98135.66;;;26.77;65.64
22753;BME280;11543;43.144;24.684;2022-08-21T07:55:04;98126.03;;;26.79;66.07
22753;BME280;11543;43.144;24.684;2022-08-21T07:57:29;98140.06;;;26.83;67.03
22753;BME280;11543;43.144;24.684;2022-08-21T07:59:55;98146.66;;;26.87;66.91
22753;BME280;11543;43.144;24.684;2022-08-21T08:02:25;98145.03;;;26.96;66.29
22753;BME280;11543;43.144;24.684;2022-08-21T08:04:51;98143.41;;;27.00;65.74
22753;BME280;11543;43.144;24.684;2022-08-21T08:07:17;98138.44;;;27.02;65.83
22753;BME280;11543;43.144;24.684;2022-08-21T08:09:43;98144.50;;;26.99;65.50
22753;BME280;11543;43.144;24.684;2022-08-21T08:12:08;98136.78;;;27.01;65.39
22753;BME280;11543;43.144;24.684;2022-08-21T08:14:34;98130.19;;;27.02;65.51
22753;BME280;11543;43.144;24.684;2022-08-21T08:16:59;98129.59;;;27.10;65.22
22753;BME280;11543;43.144;24.684;2022-08-21T08:19:25;98131.53;;;27.15;64.57
22753;BME280;11543;43.144;24.684;2022-08-21T08:21:51;98135.91;;;27.21;64.69
22753;BME280;11543;43.144;24.684;2022-08-21T08:24:16;98122.97;;;27.21;64.77
22753;BME280;11543;43.144;24.684;2022-08-21T08:26:41;98123.78;;;27.27;64.43
22753;BME280;11543;43.144;24.684;2022-08-21T08:29:07;98132.81;;;27.38;64.60
22753;BME280;11543;43.144;24.684;2022-08-21T08:31:32;98121.81;;;27.38;64.22
22753;BME280;11543;43.144;24.684;2022-08-21T08:33:58;98115.69;;;27.46;64.25
22753;BME280;11543;43.144;24.684;2022-08-21T08:36:33;98133.84;;;27.57;63.81
22753;BME280;11543;43.144;24.684;2022-08-21T08:39:00;98124.47;;;27.58;63.16
22753;BME280;11543;43.144;24.684;2022-08-21T08:41:26;98120.59;;;27.59;62.65
22753;BME280;11543;43.144;24.684;2022-08-21T08:43:54;98108.75;;;27.58;62.65
22753;BME280;11543;43.144;24.684;2022-08-21T08:46:40;98109.03;;;27.62;62.90
22753;BME280;11543;43.144;24.684;2022-08-21T08:49:11;98111.78;;;27.67;63.34
22753;BME280;11543;43.144;24.684;2022-08-21T08:51:53;98119.72;;;27.79;63.53
22753;BME280;11543;43.144;24.684;2022-08-21T08:54:45;98105.13;;;27.78;63.38
22753;BME280;11543;43.144;24.684;2022-08-21T08:57:15;98113.34;;;27.88;63.06
22753;BME280;11543;43.144;24.684;2022-08-21T08:59:44;98097.94;;;27.82;62.87
22753;BME280;11543;43.144;24.684;2022-08-21T09:02:13;98104.78;;;27.90;62.41
22753;BME280;11543;43.144;24.684;2022-08-21T09:04:39;98114.13;;;27.94;62.19
22753;BME280;11543;43.144;24.684;2022-08-21T09:07:19;98109.41;;;28.00;61.68
22753;BME280;11543;43.144;24.684;2022-08-21T09:10:10;98107.19;;;28.02;61.74
22753;BME280;11543;43.144;24.684;2022-08-21T09:27:07;98098.75;;;28.22;61.69
22753;BME280;11543;43.144;24.684;2022-08-21T09:29:38;98095.47;;;28.20;60.90
22753;BME280;11543;43.144;24.684;2022-08-21T09:32:13;98100.97;;;28.25;60.92
22753;BME280;11543;43.144;24.684;2022-08-21T09:34:39;98078.91;;;28.20;61.48
22753;BME280;11543;43.144;24.684;2022-08-21T09:37:16;98092.06;;;28.33;60.66
22753;BME280;11543;43.144;24.684;2022-08-21T09:39:42;98094.78;;;28.38;60.10
22753;BME280;11543;43.144;24.684;2022-08-21T09:42:10;98092.13;;;28.28;60.48
22753;BME280;11543;43.144;24.684;2022-08-21T09:44:38;98092.66;;;28.30;61.04
22753;BME280;11543;43.144;24.684;2022-08-21T09:47:10;98099.25;;;28.34;60.27
22753;BME280;11543;43.144;24.684;2022-08-21T09:49:41;98095.38;;;28.35;60.04
22753;BME280;11543;43.144;24.684;2022-08-21T09:52:19;98111.00;;;28.45;59.81
22753;BME280;11543;43.144;24.684;2022-08-21T09:54:54;98093.97;;;28.38;59.45
22753;BME280;11543;43.144;24.684;2022-08-21T09:57:27;98104.09;;;28.47;59.36
22753;BME280;11543;43.144;24.684;2022-08-21T10:03:07;98090.84;;;28.49;59.25
22753;BME280;11543;43.144;24.684;2022-08-21T10:05:32;98093.31;;;28.51;59.28
22753;BME280;11543;43.144;24.684;2022-08-21T10:08:00;98096.84;;;28.57;59.04
22753;BME280;11543;43.144;24.684;2022-08-21T10:10:30;98096.84;;;28.57;58.99
22753;BME280;11543;43.144;24.684;2022-08-21T10:15:46;98089.09;;;28.59;58.34
22753;BME280;11543;43.144;24.684;2022-08-21T10:18:56;98089.66;;;28.55;59.02
22753;BME280;11543;43.144;24.684;2022-08-21T10:24:12;98085.22;;;28.60;59.56
22753;BME280;11543;43.144;24.684;2022-08-21T10:26:57;98084.09;;;28.66;59.05
22753;BME280;11543;43.144;24.684;2022-08-21T10:29:46;98080.22;;;28.67;58.80
22753;BME280;11543;43.144;24.684;2022-08-21T10:32:55;98062.59;;;28.63;59.52
22753;BME280;11543;43.144;24.684;2022-08-21T10:35:23;98071.41;;;28.65;59.46
22753;BME280;11543;43.144;24.684;2022-08-21T10:44:00;98064.94;;;28.74;58.89
22753;BME280;11543;43.144;24.684;2022-08-21T10:46:59;98064.66;;;28.76;58.77
22753;BME280;11543;43.144;24.684;2022-08-21T10:49:43;98055.56;;;28.75;58.48
22753;BME280;11543;43.144;24.684;2022-08-21T10:55:14;98050.03;;;28.75;58.68
22753;BME280;11543;43.144;24.684;2022-08-21T10:57:58;98052.91;;;28.94;58.59
22753;BME280;11543;43.144;24.684;2022-08-21T11:00:33;98055.47;;;29.09;58.56
22753;BME280;11543;43.144;24.684;2022-08-21T11:03:07;98047.59;;;29.22;57.82
22753;BME280;11543;43.144;24.684;2022-08-21T11:05:46;98035.94;;;29.25;57.67
22753;BME280;11543;43.144;24.684;2022-08-21T11:08:19;98047.31;;;29.42;57.27
22753;BME280;11543;43.144;24.684;2022-08-21T11:11:03;98048.88;;;29.53;56.87
22753;BME280;11543;43.144;24.684;2022-08-21T11:13:46;98032.47;;;29.62;56.11
22753;BME280;11543;43.144;24.684;2022-08-21T11:16:26;98035.75;;;29.83;56.07
22753;BME280;11543;43.144;24.684;2022-08-21T11:19:17;98035.66;;;29.88;56.27
22753;BME280;11543;43.144;24.684;2022-08-21T11:29:50;98024.72;;;30.15;54.78
22753;BME280;11543;43.144;24.684;2022-08-21T11:35:22;98020.16;;;30.24;54.69
22753;BME280;11543;43.144;24.684;2022-08-21T11:38:13;98007.34;;;30.28;53.77
22753;BME280;11543;43.144;24.684;2022-08-21T11:40:48;98004.38;;;30.25;53.70
22753;BME280;11543;43.144;24.684;2022-08-21T11:51:07;97998.84;;;30.25;52.82
22753;BME280;11543;43.144;24.684;2022-08-21T11:53:51;97987.13;;;30.14;52.30
22753;BME280;11543;43.144;24.684;2022-08-21T11:56:30;97994.31;;;30.15;52.77
22753;BME280;11543;43.144;24.684;2022-08-21T11:59:02;97983.75;;;30.17;53.26
22753;BME280;11543;43.144;24.684;2022-08-21T12:01:34;97986.13;;;30.24;52.66
22753;BME280;11543;43.144;24.684;2022-08-21T12:04:31;97970.56;;;30.28;52.19
22753;BME280;11543;43.144;24.684;2022-08-21T12:07:12;97960.22;;;30.33;52.36
22753;BME280;11543;43.144;24.684;2022-08-21T12:09:38;97957.44;;;30.33;52.06
22753;BME280;11543;43.144;24.684;2022-08-21T12:17:18;97960.66;;;30.40;51.54
22753;BME280;11543;43.144;24.684;2022-08-21T12:19:44;97953.19;;;30.41;51.60
22753;BME280;11543;43.144;24.684;2022-08-21T12:22:13;97950.09;;;30.42;51.25
22753;BME280;11543;43.144;24.684;2022-08-21T12:24:50;97943.97;;;30.46;51.39
22753;BME280;11543;43.144;24.684;2022-08-21T12:29:58;97937.03;;;30.76;50.29
22753;BME280;11543;43.144;24.684;2022-08-21T12:32:26;97946.22;;;30.98;50.12
22753;BME280;11543;43.144;24.684;2022-08-21T12:37:43;97933.31;;;31.21;48.21
22753;BME280;11543;43.144;24.684;2022-08-21T12:40:23;97928.63;;;31.44;47.79
22753;BME280;11543;43.144;24.684;2022-08-21T12:42:53;97921.31;;;31.48;48.43
22753;BME280;11543;43.144;24.684;2022-08-21T12:45:37;97923.00;;;31.72;47.15
22753;BME280;11543;43.144;24.684;2022-08-21T12:48:18;97923.00;;;31.94;46.07
22753;BME280;11543;43.144;24.684;2022-08-21T12:50:56;97916.81;;;31.97;46.50
22753;BME280;11543;43.144;24.684;2022-08-21T12:53:38;97925.25;;;32.14;46.63
22753;BME280;11543;43.144;24.684;2022-08-21T12:56:14;97914.84;;;32.20;45.73
22753;BME280;11543;43.144;24.684;2022-08-21T12:58:43;97927.28;;;32.22;45.77
22753;BME280;11543;43.144;24.684;2022-08-21T13:03:45;97935.72;;;32.17;45.77
22753;BME280;11543;43.144;24.684;2022-08-21T13:06:17;97926.09;;;32.15;45.51
22753;BME280;11543;43.144;24.684;2022-08-21T13:08:45;97933.09;;;32.12;45.19
22753;BME280;11543;43.144;24.684;2022-08-21T13:11:15;97928.47;;;32.08;45.04
22753;BME280;11543;43.144;24.684;2022-08-21T13:13:42;97928.91;;;32.01;44.91
22753;BME280;11543;43.144;24.684;2022-08-21T13:16:09;97928.53;;;31.94;44.68
22753;BME280;11543;43.144;24.684;2022-08-21T13:21:16;97927.16;;;31.83;44.78
22753;BME280;11543;43.144;24.684;2022-08-21T13:23:42;97923.38;;;31.79;44.93
22753;BME280;11543;43.144;24.684;2022-08-21T13:26:15;97938.88;;;31.80;45.20
22753;BME280;11543;43.144;24.684;2022-08-21T13:28:41;97927.75;;;31.57;45.24
22753;BME280;11543;43.144;24.684;2022-08-21T13:31:09;97935.06;;;31.53;46.62
22753;BME280;11543;43.144;24.684;2022-08-21T13:33:39;97920.13;;;31.41;46.96
22753;BME280;11543;43.144;24.684;2022-08-21T13:36:11;97923.31;;;31.34;46.40
22753;BME280;11543;43.144;24.684;2022-08-21T13:38:41;97917.91;;;31.29;47.82
22753;BME280;11543;43.144;24.684;2022-08-21T13:43:46;97925.47;;;31.10;49.39
22753;BME280;11543;43.144;24.684;2022-08-21T13:46:13;97915.25;;;30.96;50.86
22753;BME280;11543;43.144;24.684;2022-08-21T13:48:41;97903.59;;;30.72;50.90
22753;BME280;11543;43.144;24.684;2022-08-21T13:51:07;97893.94;;;30.56;53.13
22753;BME280;11543;43.144;24.684;2022-08-21T13:53:47;97916.78;;;30.48;52.76
22753;BME280;11543;43.144;24.684;2022-08-21T13:56:29;97913.16;;;30.33;52.55
22753;BME280;11543;43.144;24.684;2022-08-21T13:58:57;97910.69;;;30.18;52.53
22753;BME280;11543;43.144;24.684;2022-08-21T14:01:51;97901.84;;;30.02;52.40
22753;BME280;11543;43.144;24.684;2022-08-21T14:04:43;97904.25;;;29.90;52.67
22753;BME280;11543;43.144;24.684;2022-08-21T14:07:24;97899.59;;;29.72;55.19
22753;BME280;11543;43.144;24.684;2022-08-21T14:09:51;97911.56;;;29.67;55.53
22753;BME280;11543;43.144;24.684;2022-08-21T14:12:24;97878.69;;;29.47;55.99
22753;BME280;11543;43.144;24.684;2022-08-21T14:14:53;97891.94;;;29.50;56.49